Kezdőlap
METAR-TAF:

METAR-TAF

Repülőterek :

Genova, Olaszország

földrajzi szélesség: 44-25N, földrajzi hosszúság: 008-51E, magasság: 2 m

Jelenlegi meteorológiai megfigyelések

A jelentés 3 órával és 55 perccel ezelõtt készült, 20:50 UTC
Északi szél 3 kt
Hőmérséklet 14°C
Páratartalom 47%
Légköri nyomás 1021 hPa
Látótávolság 10 km, vagy több
felhőtlen 1500 m magasságban, és nincs gomolyfelhõ

METAR: LIMJ 042050Z 36003KT CAVOK 14/03 Q1021

Idő: 02:45 (00:45 UTC)

Előrejelzés

A jelentés 7 órával és 45 perccel ezelõtt készült, 17:00 UTC
Az előrejelzés 04-én 18 óra UTC és 05-én 18 óra UTC között érvényes
Észak-északkeleti szél 8 kt
Látótávolság 10 km, vagy több
felhőtlen 1500 m magasságban, és nincs gomolyfelhõ

TAF: LIMJ 041700Z 0418/0518 03008KT CAVOK

Meteorológiai megfigyelések és előrejelzések több, mint 4000 repülőtéren (METAR és TAF jelentéseket).

A térképen piros és sárga pontok jelzik az elérhető meteorológiai állomásokat.

Mozgassa az egeret a pont fölött, hogy megjelenjen az állomás neve.

Azután kattintson az időjárási megfigyelések és előrejelzések megtekintéséhez.

A térkép megváltoztatása: kattintson a fekete keresztel jelölt zöld gombra ráközelítéshez, a vonallal jelölt zöld gombra távolításhoz, vagy a zöld nyilakra a szomszédos térképek eléréséhez.


METAR-TAF: